In Rescue
 
Open Full Screen Window  High Contrast Mode
April 02, 2020 10:38 PM CDT
Weather Information
Wind Direction
  ---
Wind Speed
  00 kt (0 mph)
Wind Gust
  00 kt (0 mph)
Altimeter
29.92 in
Visibility
10 SM
Temperature
13° C
55° F
Dewpoint
05° C
41° F
Humidity
59%
1hr Rain Fall
00.00 in.
24hr Rain Fall
00.00 in.
Sky Condition
Overcast @ 5,000 ft
VFR

METAR KROS 030338Z AUTO 00000KT 10SM OVC050 13/05 A2992 RMK AO2 T01280052

FAA Disclaimer: The data displayed is for advisory purposes only and is not to be used for flight planning or operations.